createdAt,value
2018-11-21T00:00:05.145Z,1011.68
2018-11-21T00:01:04.926Z,1011.64
2018-11-21T00:02:04.983Z,1011.69
2018-11-21T00:03:04.805Z,1011.8
2018-11-21T00:04:05.065Z,1011.82
2018-11-21T00:05:04.820Z,1011.88
2018-11-21T00:06:04.826Z,1011.94
2018-11-21T00:07:05.067Z,1011.95
2018-11-21T00:08:04.973Z,1011.97
2018-11-21T00:09:05.264Z,1012.05
2018-11-21T00:10:05.067Z,1012.09
2018-11-21T00:11:05.050Z,1012.17
2018-11-21T00:12:05.265Z,1012.09
2018-11-21T00:13:05.369Z,1012.15
2018-11-21T00:14:04.760Z,1012.18
2018-11-21T00:15:04.859Z,1012.25
2018-11-21T00:16:05.235Z,1012.28
2018-11-21T00:17:04.957Z,1012.34
2018-11-21T00:18:05.089Z,1012.34
2018-11-21T00:19:04.923Z,1012.34
2018-11-21T00:20:05.118Z,1012.38
2018-11-21T00:21:04.843Z,1012.44
2018-11-21T00:22:05.076Z,1012.42
2018-11-21T00:23:05.026Z,1012.45
2018-11-21T00:24:05.394Z,1012.41
2018-11-21T00:25:05.180Z,1012.41
2018-11-21T00:26:05.391Z,1012.42
2018-11-21T00:27:04.985Z,1012.4
2018-11-21T00:28:05.034Z,1012.38
2018-11-21T00:29:04.974Z,1012.39
2018-11-21T00:30:05.077Z,1012.28
2018-11-21T00:31:05.208Z,1012.32
2018-11-21T00:32:05.095Z,1012.26
2018-11-21T00:33:04.990Z,1012.24
2018-11-21T00:34:05.433Z,1012.17
2018-11-21T00:35:04.856Z,1012.15
2018-11-21T00:36:05.041Z,1012.16
2018-11-21T00:37:05.345Z,1012.13
2018-11-21T00:38:05.560Z,1012.17
2018-11-21T00:39:04.838Z,1012.19
2018-11-21T00:40:04.967Z,1012.17
2018-11-21T00:41:05.027Z,1012.19
2018-11-21T00:42:04.802Z,1012.14
2018-11-21T00:43:05.400Z,1012.12
2018-11-21T00:44:05.054Z,1012.15
2018-11-21T00:45:05.567Z,1012.06
2018-11-21T00:46:05.103Z,1012.07
2018-11-21T00:47:05.304Z,1012.02
2018-11-21T00:48:04.905Z,1012.01
2018-11-21T00:49:05.081Z,1012.03
2018-11-21T00:50:05.004Z,1012.16
2018-11-21T00:51:05.255Z,1012.22
2018-11-21T00:52:05.003Z,1012.21
2018-11-21T00:53:04.960Z,1012.22
2018-11-21T00:54:05.023Z,1012.27
2018-11-21T00:55:04.884Z,1012.34
2018-11-21T00:56:04.954Z,1012.38
2018-11-21T00:57:04.775Z,1012.41
2018-11-21T00:58:04.974Z,1012.46
2018-11-21T00:59:05.051Z,1012.47
2018-11-21T01:00:04.834Z,1012.54
2018-11-21T01:01:05.117Z,1012.56
2018-11-21T01:02:05.171Z,1012.48
2018-11-21T01:03:05.209Z,1012.49
2018-11-21T01:04:04.838Z,1012.57
2018-11-21T01:05:05.069Z,1012.56
2018-11-21T01:06:05.184Z,1012.62
2018-11-21T01:07:04.950Z,1012.63
2018-11-21T01:08:05.259Z,1012.64
2018-11-21T01:09:04.883Z,1012.66
2018-11-21T01:10:04.980Z,1012.74
2018-11-21T01:11:05.063Z,1012.72
2018-11-21T01:12:05.079Z,1012.77
2018-11-21T01:13:04.928Z,1012.75
2018-11-21T01:14:04.914Z,1012.76
2018-11-21T01:15:04.844Z,1012.8
2018-11-21T01:16:05.018Z,1012.78
2018-11-21T01:17:04.805Z,1012.81
2018-11-21T01:18:04.943Z,1012.83
2018-11-21T01:19:05.234Z,1012.78
2018-11-21T01:20:05.307Z,1012.85
2018-11-21T01:21:05.070Z,1012.84
2018-11-21T01:22:04.974Z,1012.87
2018-11-21T01:23:05.286Z,1012.88
2018-11-21T01:24:04.850Z,1012.97
2018-11-21T01:25:04.812Z,1012.97
2018-11-21T01:26:05.331Z,1012.94
2018-11-21T01:27:05.073Z,1013.01
2018-11-21T01:28:05.037Z,1013.02
2018-11-21T01:29:05.011Z,1013.01
2018-11-21T01:30:04.975Z,1012.99
2018-11-21T01:31:04.816Z,1013.03
2018-11-21T01:32:05.010Z,1013.01
2018-11-21T01:33:09.984Z,1013.06
2018-11-21T01:34:04.890Z,1013.05
2018-11-21T01:35:04.983Z,1013.08
2018-11-21T01:36:05.046Z,1013.12
2018-11-21T01:37:04.995Z,1013.11
2018-11-21T01:38:04.960Z,1013.21
2018-11-21T01:39:05.035Z,1013.14
2018-11-21T01:40:05.279Z,1013.15
2018-11-21T01:41:04.940Z,1013.14
2018-11-21T01:42:04.980Z,1013.1
2018-11-21T01:43:04.848Z,1013.1
2018-11-21T01:44:05.017Z,1013.17
2018-11-21T01:45:05.138Z,1013.16
2018-11-21T01:46:04.976Z,1013.17
2018-11-21T01:47:04.836Z,1013.12
2018-11-21T01:48:04.919Z,1013.12
2018-11-21T01:49:05.097Z,1013.09
2018-11-21T01:50:04.899Z,1013.09
2018-11-21T01:51:05.009Z,1013.11
2018-11-21T01:52:05.306Z,1013.08
2018-11-21T01:53:05.073Z,1013.1
2018-11-21T01:54:05.069Z,1013.14
2018-11-21T01:55:05.268Z,1013.12
2018-11-21T01:56:05.002Z,1013.17
2018-11-21T01:57:04.968Z,1013.18
2018-11-21T01:58:05.044Z,1013.14
2018-11-21T01:59:05.211Z,1013.14
2018-11-21T02:00:05.310Z,1013.15
2018-11-21T02:01:05.336Z,1013.18
2018-11-21T02:02:05.055Z,1013.14
2018-11-21T02:03:05.343Z,1013.11
2018-11-21T02:04:05.191Z,1013.14
2018-11-21T02:05:05.727Z,1013.14
2018-11-21T02:06:05.031Z,1013.12
2018-11-21T02:07:05.178Z,1013.16
2018-11-21T02:08:05.040Z,1013.13
2018-11-21T02:09:04.943Z,1013.13
2018-11-21T02:10:04.862Z,1013.13
2018-11-21T02:11:05.470Z,1013.07
2018-11-21T02:12:05.710Z,1013.07
2018-11-21T02:13:04.943Z,1013.02
2018-11-21T02:14:05.018Z,1012.99
2018-11-21T02:15:04.857Z,1012.97
2018-11-21T02:16:04.950Z,1012.88
2018-11-21T02:17:05.118Z,1012.89
2018-11-21T02:18:04.942Z,1012.86
2018-11-21T02:19:04.906Z,1012.87
2018-11-21T02:20:05.037Z,1012.83
2018-11-21T02:21:04.875Z,1012.86
2018-11-21T02:22:05.184Z,1012.86
2018-11-21T02:23:04.980Z,1012.89
2018-11-21T02:24:05.075Z,1012.91
2018-11-21T02:25:05.134Z,1012.85
2018-11-21T02:26:04.844Z,1012.88
2018-11-21T02:27:04.840Z,1012.85
2018-11-21T02:28:05.119Z,1012.92
2018-11-21T02:29:04.938Z,1012.89
2018-11-21T02:30:04.885Z,1012.93
2018-11-21T02:31:04.971Z,1012.94
2018-11-21T02:32:05.063Z,1012.97
2018-11-21T02:33:05.156Z,1013
2018-11-21T02:34:05.355Z,1013.01
2018-11-21T02:35:05.305Z,1012.97
2018-11-21T02:36:04.940Z,1012.98
2018-11-21T02:37:04.834Z,1012.99
2018-11-21T02:38:04.944Z,1012.95
2018-11-21T02:39:05.014Z,1013.03
2018-11-21T02:40:05.206Z,1013.03
2018-11-21T02:41:05.118Z,1013.05
2018-11-21T02:42:04.900Z,1013.06
2018-11-21T02:43:05.027Z,1013.09
2018-11-21T02:44:04.991Z,1013.09
2018-11-21T02:45:05.221Z,1013.17
2018-11-21T02:46:04.850Z,1013.19
2018-11-21T02:47:05.038Z,1013.23
2018-11-21T02:48:05.057Z,1013.24
2018-11-21T02:49:05.390Z,1013.27
2018-11-21T02:50:04.816Z,1013.33
2018-11-21T02:51:04.935Z,1013.29
2018-11-21T02:52:05.422Z,1013.31
2018-11-21T02:53:04.857Z,1013.31
2018-11-21T02:54:04.997Z,1013.33
2018-11-21T02:55:04.960Z,1013.37
2018-11-21T02:56:04.900Z,1013.34
2018-11-21T02:57:04.797Z,1013.35
2018-11-21T02:58:05.161Z,1013.44
2018-11-21T02:59:04.741Z,1013.47
2018-11-21T03:00:05.138Z,1013.45
2018-11-21T03:01:05.004Z,1013.55
2018-11-21T03:02:04.798Z,1013.53
2018-11-21T03:03:05.357Z,1013.58
2018-11-21T03:04:04.880Z,1013.7
2018-11-21T03:05:04.868Z,1013.69
2018-11-21T03:06:04.812Z,1013.77
2018-11-21T03:07:05.173Z,1013.78
2018-11-21T03:08:04.888Z,1013.86
2018-11-21T03:09:04.793Z,1013.85
2018-11-21T03:10:05.122Z,1013.9
2018-11-21T03:11:04.968Z,1013.97
2018-11-21T03:12:04.995Z,1013.93
2018-11-21T03:13:04.818Z,1013.93
2018-11-21T03:14:04.819Z,1013.93
2018-11-21T03:15:04.829Z,1013.98
2018-11-21T03:16:05.668Z,1013.96
2018-11-21T03:17:04.920Z,1013.98
2018-11-21T03:18:05.049Z,1013.97
2018-11-21T03:19:04.822Z,1014
2018-11-21T03:20:04.874Z,1013.96
2018-11-21T03:21:05.028Z,1013.92
2018-11-21T03:22:04.891Z,1013.93
2018-11-21T03:23:04.928Z,1013.97
2018-11-21T03:24:04.748Z,1013.98
2018-11-21T03:25:04.814Z,1013.95
2018-11-21T03:26:04.800Z,1014.03
2018-11-21T03:27:04.907Z,1014.11
2018-11-21T03:28:04.775Z,1014.14
2018-11-21T03:29:04.912Z,1014.16
2018-11-21T03:30:04.955Z,1014.14
2018-11-21T03:31:04.916Z,1014.11
2018-11-21T03:32:04.994Z,1014.11
2018-11-21T03:33:04.750Z,1014.14
2018-11-21T03:34:04.891Z,1014.03
2018-11-21T03:35:05.198Z,1014
2018-11-21T03:36:05.206Z,1014.05
2018-11-21T03:37:05.404Z,1014.1
2018-11-21T03:38:05.295Z,1014.11
2018-11-21T03:39:05.222Z,1014.16
2018-11-21T03:40:04.854Z,1014.15
2018-11-21T03:41:05.224Z,1014.18
2018-11-21T03:42:04.822Z,1014.14
2018-11-21T03:43:05.266Z,1014.16
2018-11-21T03:44:04.829Z,1014.02
2018-11-21T03:45:05.268Z,1014.01
2018-11-21T03:46:04.768Z,1013.95
2018-11-21T03:47:04.986Z,1013.93
2018-11-21T03:48:04.857Z,1013.9
2018-11-21T03:49:05.082Z,1013.87
2018-11-21T03:50:05.422Z,1013.85
2018-11-21T03:51:05.309Z,1013.87
2018-11-21T03:52:05.233Z,1013.84
2018-11-21T03:53:04.853Z,1013.85
2018-11-21T03:54:05.385Z,1013.85
2018-11-21T03:55:05.156Z,1013.83
2018-11-21T03:56:04.938Z,1013.8
2018-11-21T03:57:05.229Z,1013.76
2018-11-21T03:58:04.803Z,1013.78
2018-11-21T03:59:04.866Z,1013.72
2018-11-21T04:00:05.056Z,1013.78
2018-11-21T04:01:04.983Z,1013.74
2018-11-21T04:02:04.951Z,1013.77
2018-11-21T04:03:04.956Z,1013.86
2018-11-21T04:04:04.952Z,1013.89
2018-11-21T04:05:04.929Z,1013.95
2018-11-21T04:06:05.202Z,1014.03
2018-11-21T04:07:04.925Z,1013.97
2018-11-21T04:08:04.750Z,1014.06
2018-11-21T04:09:04.810Z,1014.07
2018-11-21T04:10:04.962Z,1013.98
2018-11-21T04:11:05.092Z,1014.07
2018-11-21T04:12:05.160Z,1014.09
2018-11-21T04:13:05.059Z,1014
2018-11-21T04:14:05.129Z,1014.05
2018-11-21T04:15:05.061Z,1014.11
2018-11-21T04:16:05.019Z,1014.14
2018-11-21T04:17:04.889Z,1014.15
2018-11-21T04:18:05.190Z,1014.18
2018-11-21T04:19:04.718Z,1014.19
2018-11-21T04:20:04.795Z,1014.22
2018-11-21T04:21:04.894Z,1014.23
2018-11-21T04:22:04.821Z,1014.19
2018-11-21T04:23:05.200Z,1014.22
2018-11-21T04:24:04.886Z,1014.22
2018-11-21T04:25:05.055Z,1014.2
2018-11-21T04:26:04.999Z,1014.22
2018-11-21T04:27:05.246Z,1014.25
2018-11-21T04:28:04.817Z,1014.28
2018-11-21T04:29:04.934Z,1014.33
2018-11-21T04:30:05.079Z,1014.36
2018-11-21T04:31:05.158Z,1014.39
2018-11-21T04:32:05.193Z,1014.44
2018-11-21T04:33:04.751Z,1014.44
2018-11-21T04:34:05.019Z,1014.49
2018-11-21T04:35:04.781Z,1014.54
2018-11-21T04:36:05.101Z,1014.54
2018-11-21T04:37:05.085Z,1014.57
2018-11-21T04:38:04.984Z,1014.56
2018-11-21T04:39:05.071Z,1014.56
2018-11-21T04:40:05.035Z,1014.57
2018-11-21T04:41:05.182Z,1014.55
2018-11-21T04:42:04.881Z,1014.49
2018-11-21T04:43:05.007Z,1014.52
2018-11-21T04:44:05.099Z,1014.58
2018-11-21T04:45:04.977Z,1014.52
2018-11-21T04:46:04.962Z,1014.54
2018-11-21T04:47:04.848Z,1014.5
2018-11-21T04:48:04.971Z,1014.51
2018-11-21T04:49:04.727Z,1014.54
2018-11-21T04:50:04.860Z,1014.54
2018-11-21T04:51:04.841Z,1014.57
2018-11-21T04:52:04.975Z,1014.6
2018-11-21T04:53:05.100Z,1014.67
2018-11-21T04:54:04.802Z,1014.63
2018-11-21T04:55:05.023Z,1014.65
2018-11-21T04:56:04.757Z,1014.7
2018-11-21T04:57:04.932Z,1014.67
2018-11-21T04:58:04.760Z,1014.69
2018-11-21T04:59:05.031Z,1014.72
2018-11-21T05:00:04.763Z,1014.75
2018-11-21T05:01:04.925Z,1014.7
2018-11-21T05:02:04.714Z,1014.69
2018-11-21T05:03:04.834Z,1014.71
2018-11-21T05:04:04.937Z,1014.66
2018-11-21T05:05:04.788Z,1014.7
2018-11-21T05:06:04.987Z,1014.67
2018-11-21T05:07:05.128Z,1014.71
2018-11-21T05:08:04.900Z,1014.73
2018-11-21T05:09:04.851Z,1014.68
2018-11-21T05:10:04.973Z,1014.67
2018-11-21T05:11:04.859Z,1014.61
2018-11-21T05:12:05.062Z,1014.62
2018-11-21T05:13:04.722Z,1014.63
2018-11-21T05:14:05.128Z,1014.61
2018-11-21T05:15:04.886Z,1014.6
2018-11-21T05:16:05.200Z,1014.59
2018-11-21T05:17:05.288Z,1014.54
2018-11-21T05:18:04.859Z,1014.54
2018-11-21T05:19:04.966Z,1014.49
2018-11-21T05:20:04.696Z,1014.53
2018-11-21T05:21:04.871Z,1014.55
2018-11-21T05:22:05.082Z,1014.55
2018-11-21T05:23:04.797Z,1014.59
2018-11-21T05:24:05.242Z,1014.67
2018-11-21T05:25:05.465Z,1014.6
2018-11-21T05:26:05.106Z,1014.65
2018-11-21T05:27:04.843Z,1014.7
2018-11-21T05:28:05.320Z,1014.7
2018-11-21T05:29:04.728Z,1014.72
2018-11-21T05:30:04.826Z,1014.68
2018-11-21T05:31:04.998Z,1014.68
2018-11-21T05:32:05.080Z,1014.72
2018-11-21T05:33:05.041Z,1014.73
2018-11-21T05:34:04.981Z,1014.74
2018-11-21T05:35:05.209Z,1014.72
2018-11-21T05:36:05.599Z,1014.74
2018-11-21T05:37:04.978Z,1014.76
2018-11-21T05:38:04.939Z,1014.75
2018-11-21T05:39:05.007Z,1014.79
2018-11-21T05:40:04.849Z,1014.74
2018-11-21T05:41:04.803Z,1014.74
2018-11-21T05:42:05.270Z,1014.78
2018-11-21T05:43:04.919Z,1014.78
2018-11-21T05:44:04.880Z,1014.77
2018-11-21T05:45:04.841Z,1014.75
2018-11-21T05:46:04.960Z,1014.76
2018-11-21T05:47:04.795Z,1014.77
2018-11-21T05:48:05.093Z,1014.78
2018-11-21T05:49:04.804Z,1014.83
2018-11-21T05:50:04.736Z,1014.78
2018-11-21T05:51:04.730Z,1014.77
2018-11-21T05:52:04.739Z,1014.87
2018-11-21T05:53:05.188Z,1014.85
2018-11-21T05:54:04.849Z,1014.81
2018-11-21T05:55:04.909Z,1014.85
2018-11-21T05:56:05.261Z,1014.79
2018-11-21T05:57:05.166Z,1014.81
2018-11-21T05:58:05.182Z,1014.8
2018-11-21T05:59:04.790Z,1014.79
2018-11-21T06:00:04.670Z,1014.81
2018-11-21T06:01:04.844Z,1014.84
2018-11-21T06:02:05.060Z,1014.87
2018-11-21T06:03:04.761Z,1014.88
2018-11-21T06:04:04.916Z,1014.96
2018-11-21T06:05:04.782Z,1014.95
2018-11-21T06:06:10.185Z,1014.94
2018-11-21T06:07:05.019Z,1014.98
2018-11-21T06:08:04.648Z,1014.94
2018-11-21T06:09:05.357Z,1015
2018-11-21T06:10:04.791Z,1014.99
2018-11-21T06:11:05.168Z,1015.03
2018-11-21T06:12:04.784Z,1015.1
2018-11-21T06:13:04.878Z,1015.14
2018-11-21T06:14:05.106Z,1015.15
2018-11-21T06:15:05.208Z,1015.23
2018-11-21T06:16:04.756Z,1015.27
2018-11-21T06:17:05.183Z,1015.36
2018-11-21T06:18:04.975Z,1015.38
2018-11-21T06:19:04.963Z,1015.4
2018-11-21T06:20:04.815Z,1015.5
2018-11-21T06:21:04.697Z,1015.54
2018-11-21T06:22:05.056Z,1015.54
2018-11-21T06:23:04.679Z,1015.49
2018-11-21T06:24:04.710Z,1015.46
2018-11-21T06:25:05.006Z,1015.52
2018-11-21T06:26:05.607Z,1015.51
2018-11-21T06:27:04.900Z,1015.52
2018-11-21T06:28:04.800Z,1015.56
2018-11-21T06:29:05.342Z,1015.58
2018-11-21T06:30:04.801Z,1015.58
2018-11-21T06:31:04.725Z,1015.61
2018-11-21T06:32:04.792Z,1015.71
2018-11-21T06:33:04.803Z,1015.66
2018-11-21T06:34:04.948Z,1015.7
2018-11-21T06:35:04.797Z,1015.8
2018-11-21T06:36:05.087Z,1015.78
2018-11-21T06:37:04.762Z,1015.82
2018-11-21T06:38:04.860Z,1015.81
2018-11-21T06:39:04.676Z,1015.85
2018-11-21T06:40:04.856Z,1015.83
2018-11-21T06:41:04.927Z,1015.91
2018-11-21T06:42:04.653Z,1015.87
2018-11-21T06:43:04.805Z,1015.94
2018-11-21T06:44:04.877Z,1015.93
2018-11-21T06:45:04.913Z,1015.89
2018-11-21T06:46:04.952Z,1015.93
2018-11-21T06:47:04.948Z,1015.93
2018-11-21T06:48:05.006Z,1015.91
2018-11-21T06:49:05.238Z,1015.94
2018-11-21T06:50:05.058Z,1015.96
2018-11-21T06:51:04.937Z,1015.98
2018-11-21T06:52:04.716Z,1016.05
2018-11-21T06:53:05.683Z,1015.97
2018-11-21T06:54:05.153Z,1016.03
2018-11-21T06:55:05.032Z,1016.04
2018-11-21T06:56:04.878Z,1016.02
2018-11-21T06:57:05.223Z,1016.09
2018-11-21T06:58:05.104Z,1016.11
2018-11-21T06:59:05.317Z,1016.1
2018-11-21T07:00:05.000Z,1016.11
2018-11-21T07:01:05.039Z,1016.15
2018-11-21T07:02:04.821Z,1016.14
2018-11-21T07:03:04.664Z,1016.21
2018-11-21T07:04:04.808Z,1016.19
2018-11-21T07:05:04.916Z,1016.22
2018-11-21T07:06:05.189Z,1016.3
2018-11-21T07:07:04.921Z,1016.31
2018-11-21T07:08:04.872Z,1016.37
2018-11-21T07:09:04.564Z,1016.36
2018-11-21T07:10:04.796Z,1016.37
2018-11-21T07:11:05.282Z,1016.41
2018-11-21T07:12:04.790Z,1016.41
2018-11-21T07:13:11.342Z,1016.49
2018-11-21T07:14:07.509Z,1016.47
2018-11-21T07:15:04.903Z,1016.49
2018-11-21T07:16:05.136Z,1016.52
2018-11-21T07:17:04.964Z,1016.55
2018-11-21T07:18:04.671Z,1016.55
2018-11-21T07:19:04.931Z,1016.53
2018-11-21T07:20:05.317Z,1016.45
2018-11-21T07:21:04.946Z,1016.46
2018-11-21T07:22:05.005Z,1016.5
2018-11-21T07:23:05.180Z,1016.45
2018-11-21T07:24:04.712Z,1016.57
2018-11-21T07:25:05.084Z,1016.55
2018-11-21T07:26:04.991Z,1016.58
2018-11-21T07:27:04.790Z,1016.61
2018-11-21T07:28:04.867Z,1016.63
2018-11-21T07:29:04.750Z,1016.62
2018-11-21T07:30:05.317Z,1016.66
2018-11-21T07:31:05.662Z,1016.6
2018-11-21T07:32:05.706Z,1016.61
2018-11-21T07:33:04.761Z,1016.63
2018-11-21T07:34:04.814Z,1016.63
2018-11-21T07:35:05.068Z,1016.6
2018-11-21T07:36:05.076Z,1016.6
2018-11-21T07:37:05.085Z,1016.6
2018-11-21T07:38:04.957Z,1016.62
2018-11-21T07:39:04.844Z,1016.59
2018-11-21T07:40:04.779Z,1016.58
2018-11-21T07:41:04.815Z,1016.59
2018-11-21T07:42:05.119Z,1016.64
2018-11-21T07:43:04.952Z,1016.61
2018-11-21T07:44:04.752Z,1016.62
2018-11-21T07:45:05.089Z,1016.67
2018-11-21T07:46:04.921Z,1016.65
2018-11-21T07:47:04.853Z,1016.67
2018-11-21T07:48:05.089Z,1016.63
2018-11-21T07:49:04.849Z,1016.62
2018-11-21T07:50:04.989Z,1016.62
2018-11-21T07:51:04.970Z,1016.62
2018-11-21T07:52:05.086Z,1016.61
2018-11-21T07:53:04.793Z,1016.57
2018-11-21T07:54:04.690Z,1016.61
2018-11-21T07:55:04.854Z,1016.61
2018-11-21T07:56:04.609Z,1016.64
2018-11-21T07:57:05.115Z,1016.66
2018-11-21T07:58:04.764Z,1016.67
2018-11-21T07:59:04.890Z,1016.64
2018-11-21T08:00:04.971Z,1016.72
2018-11-21T08:01:05.163Z,1016.71
2018-11-21T08:02:04.751Z,1016.75
2018-11-21T08:03:05.061Z,1016.72
2018-11-21T08:04:04.783Z,1016.7
2018-11-21T08:05:04.941Z,1016.73
2018-11-21T08:06:04.861Z,1016.75
2018-11-21T08:07:04.657Z,1016.78
2018-11-21T08:08:04.771Z,1016.79
2018-11-21T08:09:04.803Z,1016.81
2018-11-21T08:10:05.011Z,1016.85
2018-11-21T08:11:05.000Z,1016.8
2018-11-21T08:12:04.843Z,1016.8
2018-11-21T08:13:04.707Z,1016.84
2018-11-21T08:14:04.969Z,1016.81
2018-11-21T08:15:04.938Z,1016.77
2018-11-21T08:16:04.645Z,1016.79
2018-11-21T08:17:04.673Z,1016.83
2018-11-21T08:18:04.809Z,1016.82
2018-11-21T08:19:04.660Z,1016.84
2018-11-21T08:20:04.970Z,1016.87
2018-11-21T08:21:05.270Z,1016.84
2018-11-21T08:22:04.988Z,1016.84
2018-11-21T08:23:05.208Z,1016.86
2018-11-21T08:24:04.744Z,1016.84
2018-11-21T08:25:04.695Z,1016.94
2018-11-21T08:26:04.941Z,1016.92
2018-11-21T08:27:04.928Z,1016.94
2018-11-21T08:28:05.606Z,1017.05
2018-11-21T08:29:05.152Z,1017.02
2018-11-21T08:30:05.092Z,1017.03
2018-11-21T08:31:04.766Z,1017.06
2018-11-21T08:32:05.160Z,1017.09
2018-11-21T08:33:04.809Z,1017.1
2018-11-21T08:34:04.787Z,1017.08
2018-11-21T08:35:04.951Z,1017.07
2018-11-21T08:36:05.805Z,1017.12
2018-11-21T08:37:05.062Z,1017.06
2018-11-21T08:38:04.912Z,1017.06
2018-11-21T08:39:04.963Z,1017.05
2018-11-21T08:40:05.042Z,1017.06
2018-11-21T08:41:05.453Z,1017.06
2018-11-21T08:42:04.843Z,1017.06
2018-11-21T08:43:04.839Z,1017.08
2018-11-21T08:44:04.804Z,1017.1
2018-11-21T08:45:04.870Z,1017.08
2018-11-21T08:46:04.832Z,1017.09
2018-11-21T08:47:05.160Z,1017.18
2018-11-21T08:48:04.701Z,1017.19
2018-11-21T08:49:04.949Z,1017.18
2018-11-21T08:50:04.817Z,1017.19
2018-11-21T08:51:04.986Z,1017.18
2018-11-21T08:52:04.803Z,1017.21
2018-11-21T08:53:05.315Z,1017.14
2018-11-21T08:54:04.597Z,1017.18
2018-11-21T08:55:09.262Z,1017.22
2018-11-21T08:56:05.001Z,1017.12
2018-11-21T08:57:04.822Z,1017.23
2018-11-21T08:58:04.825Z,1017.2
2018-11-21T08:59:04.786Z,1017.19
2018-11-21T09:00:04.709Z,1017.19
2018-11-21T09:01:04.845Z,1017.14
2018-11-21T09:02:04.658Z,1017.12
2018-11-21T09:03:04.668Z,1017.14
2018-11-21T09:04:04.675Z,1017.21
2018-11-21T09:05:04.810Z,1017.18
2018-11-21T09:06:05.214Z,1017.19
2018-11-21T09:07:04.746Z,1017.23
2018-11-21T09:08:05.209Z,1017.23
2018-11-21T09:09:04.955Z,1017.22
2018-11-21T09:10:04.939Z,1017.19
2018-11-21T09:11:05.210Z,1017.26
2018-11-21T09:12:08.997Z,1017.24
2018-11-21T09:13:04.734Z,1017.25
2018-11-21T09:14:05.053Z,1017.3
2018-11-21T09:15:04.960Z,1017.33
2018-11-21T09:16:05.078Z,1017.34
2018-11-21T09:17:04.980Z,1017.36
2018-11-21T09:18:04.788Z,1017.37
2018-11-21T09:19:04.833Z,1017.39
2018-11-21T09:20:04.991Z,1017.43
2018-11-21T09:21:04.858Z,1017.42
2018-11-21T09:22:04.791Z,1017.45
2018-11-21T09:23:05.116Z,1017.52
2018-11-21T09:24:04.876Z,1017.5
2018-11-21T09:25:05.556Z,1017.54
2018-11-21T09:26:04.927Z,1017.52
2018-11-21T09:27:04.678Z,1017.62
2018-11-21T09:28:04.876Z,1017.59
2018-11-21T09:29:04.647Z,1017.57
2018-11-21T09:30:04.765Z,1017.63
2018-11-21T09:31:04.966Z,1017.6
2018-11-21T09:32:04.705Z,1017.65
2018-11-21T09:33:04.877Z,1017.7
2018-11-21T09:34:04.723Z,1017.7
2018-11-21T09:35:04.856Z,1017.72
2018-11-21T09:36:04.916Z,1017.71
2018-11-21T09:37:04.788Z,1017.72
2018-11-21T09:38:04.691Z,1017.76
2018-11-21T09:39:04.709Z,1017.77
2018-11-21T09:40:04.944Z,1017.78
2018-11-21T09:41:04.961Z,1017.78
2018-11-21T09:42:04.872Z,1017.75
2018-11-21T09:43:04.830Z,1017.78
2018-11-21T09:44:04.803Z,1017.77
2018-11-21T09:45:04.688Z,1017.82
2018-11-21T09:46:04.813Z,1017.82
2018-11-21T09:47:04.745Z,1017.86
2018-11-21T09:48:04.804Z,1017.92
2018-11-21T09:49:04.699Z,1017.87
2018-11-21T09:50:04.700Z,1017.93
2018-11-21T09:51:04.624Z,1017.97
2018-11-21T09:52:04.768Z,1017.99
2018-11-21T09:53:04.768Z,1017.98
2018-11-21T09:54:04.680Z,1018.03
2018-11-21T09:55:04.839Z,1018.04
2018-11-21T09:56:04.733Z,1017.97
2018-11-21T09:57:04.800Z,1017.95
2018-11-21T09:58:04.887Z,1017.95
2018-11-21T09:59:04.854Z,1017.97
2018-11-21T10:00:04.757Z,1017.96
2018-11-21T10:01:04.783Z,1017.94
2018-11-21T10:02:04.923Z,1017.93
2018-11-21T10:03:04.742Z,1017.98
2018-11-21T10:04:05.716Z,1018.01
2018-11-21T10:05:04.669Z,1017.98
2018-11-21T10:06:04.743Z,1018.01
2018-11-21T10:07:04.859Z,1017.99
2018-11-21T10:08:04.931Z,1017.99
2018-11-21T10:09:05.331Z,1018.01
2018-11-21T10:10:05.062Z,1018.01
2018-11-21T10:11:05.248Z,1018.01
2018-11-21T10:12:04.960Z,1017.98
2018-11-21T10:13:05.003Z,1017.98
2018-11-21T10:14:04.908Z,1017.99
2018-11-21T10:15:04.915Z,1017.94
2018-11-21T10:16:04.618Z,1017.99
2018-11-21T10:17:04.762Z,1018.02
2018-11-21T10:18:05.090Z,1017.98
2018-11-21T10:19:04.709Z,1018.01
2018-11-21T10:20:04.884Z,1018
2018-11-21T10:21:04.909Z,1018.01
2018-11-21T10:22:04.926Z,1018.01
2018-11-21T10:23:04.820Z,1018.03
2018-11-21T10:24:04.850Z,1018.06
2018-11-21T10:25:04.628Z,1018.07
2018-11-21T10:26:04.702Z,1018.06
2018-11-21T10:27:04.848Z,1018
2018-11-21T10:28:04.924Z,1018
2018-11-21T10:29:05.692Z,1017.96
2018-11-21T10:30:04.676Z,1017.95
2018-11-21T10:31:04.903Z,1017.99
2018-11-21T10:32:04.698Z,1017.95
2018-11-21T10:33:04.898Z,1017.98
2018-11-21T10:34:04.692Z,1017.96
2018-11-21T10:35:04.955Z,1017.99
2018-11-21T10:36:04.818Z,1018.01
2018-11-21T10:37:05.304Z,1018.04
2018-11-21T10:38:04.601Z,1018.06
2018-11-21T10:39:04.726Z,1018.02
2018-11-21T10:40:04.623Z,1018.07
2018-11-21T10:41:04.693Z,1018.05
2018-11-21T10:42:04.847Z,1018.03
2018-11-21T10:43:05.964Z,1018.06
2018-11-21T10:44:04.789Z,1018.07
2018-11-21T10:45:05.081Z,1017.99
2018-11-21T10:46:04.821Z,1017.97
2018-11-21T10:47:04.839Z,1018
2018-11-21T10:48:04.694Z,1017.99
2018-11-21T10:49:04.908Z,1018
2018-11-21T10:50:05.136Z,1017.96
2018-11-21T10:51:04.934Z,1017.95
2018-11-21T10:52:04.940Z,1017.95
2018-11-21T10:53:04.728Z,1017.96
2018-11-21T10:54:04.917Z,1017.96
2018-11-21T10:55:04.762Z,1017.99
2018-11-21T10:56:04.832Z,1017.96
2018-11-21T10:57:04.623Z,1017.99
2018-11-21T10:58:05.187Z,1017.96
2018-11-21T10:59:04.944Z,1017.99
2018-11-21T11:00:04.700Z,1018.04
2018-11-21T11:01:04.754Z,1018.03
2018-11-21T11:02:04.996Z,1018.08
2018-11-21T11:03:04.628Z,1018.02
2018-11-21T11:04:04.795Z,1017.98
2018-11-21T11:05:04.711Z,1017.98
2018-11-21T11:06:04.681Z,1018.04
2018-11-21T11:07:04.846Z,1017.99
2018-11-21T11:08:04.732Z,1018.02
2018-11-21T11:09:04.708Z,1018.03
2018-11-21T11:10:04.804Z,1018.04
2018-11-21T11:11:04.851Z,1018.03
2018-11-21T11:12:04.633Z,1018.06
2018-11-21T11:13:04.848Z,1018.03
2018-11-21T11:14:04.896Z,1018.04
2018-11-21T11:15:04.745Z,1018
2018-11-21T11:16:04.616Z,1018.02
2018-11-21T11:17:04.538Z,1018.01
2018-11-21T11:18:04.555Z,1017.96
2018-11-21T11:19:04.728Z,1017.97
2018-11-21T11:20:08.865Z,1017.96
2018-11-21T11:21:04.572Z,1017.98
2018-11-21T11:22:04.880Z,1017.96
2018-11-21T11:23:04.643Z,1017.96
2018-11-21T11:24:04.711Z,1017.95
2018-11-21T11:25:04.908Z,1017.98
2018-11-21T11:26:04.644Z,1018.01
2018-11-21T11:27:04.707Z,1017.98
2018-11-21T11:28:04.650Z,1018.06
2018-11-21T11:29:04.796Z,1018.02
2018-11-21T11:30:04.640Z,1018.05
2018-11-21T11:31:04.742Z,1018.03
2018-11-21T11:32:05.034Z,1018.06
2018-11-21T11:33:04.917Z,1018.1
2018-11-21T11:34:04.566Z,1018.1
2018-11-21T11:35:04.868Z,1018.1
2018-11-21T11:36:04.497Z,1018.06
2018-11-21T11:37:04.662Z,1018.07
2018-11-21T11:38:04.913Z,1018.11
2018-11-21T11:39:04.716Z,1018.1
2018-11-21T11:40:04.864Z,1018.12
2018-11-21T11:41:04.618Z,1018.14
2018-11-21T11:42:04.743Z,1018.14
2018-11-21T11:43:04.559Z,1018.13
2018-11-21T11:44:04.687Z,1018.07
2018-11-21T11:45:04.898Z,1018.11
2018-11-21T11:46:04.715Z,1018.07
2018-11-21T11:47:04.793Z,1018.06
2018-11-21T11:48:04.822Z,1017.99
2018-11-21T11:49:04.953Z,1018.01
2018-11-21T11:50:04.631Z,1018.06
2018-11-21T11:51:04.735Z,1018.01
2018-11-21T11:52:04.614Z,1018.02
2018-11-21T11:53:04.643Z,1018.02
2018-11-21T11:54:05.166Z,1018.06
2018-11-21T11:55:04.738Z,1018.05
2018-11-21T11:56:04.842Z,1018.06
2018-11-21T11:57:04.899Z,1018.08
2018-11-21T11:58:04.757Z,1018.08
2018-11-21T11:59:04.642Z,1018.11
2018-11-21T12:00:04.671Z,1018.07
2018-11-21T12:01:04.804Z,1018.04
2018-11-21T12:02:04.665Z,1018.06
2018-11-21T12:03:05.249Z,1018.05
2018-11-21T12:04:04.735Z,1018.12
2018-11-21T12:05:04.808Z,1018.12
2018-11-21T12:06:04.939Z,1018.12
2018-11-21T12:07:04.633Z,1018.08
2018-11-21T12:08:04.658Z,1018.12